sensor_id;sensor_type;location;lat;lon;timestamp;P1;durP1;ratioP1;P2;durP2;ratioP2
12836;SDS011;6485;51.472;5.268;2022-07-11T00:02:11;11.63;;;5.33;;
12836;SDS011;6485;51.472;5.268;2022-07-11T00:04:41;8.70;;;5.23;;
12836;SDS011;6485;51.472;5.268;2022-07-11T00:07:10;8.37;;;5.30;;
12836;SDS011;6485;51.472;5.268;2022-07-11T00:09:38;12.23;;;5.50;;
12836;SDS011;6485;51.472;5.268;2022-07-11T00:12:07;7.93;;;5.27;;
12836;SDS011;6485;51.472;5.268;2022-07-11T00:14:36;8.07;;;5.37;;
12836;SDS011;6485;51.472;5.268;2022-07-11T00:17:06;9.03;;;5.30;;
12836;SDS011;6485;51.472;5.268;2022-07-11T00:19:34;14.57;;;5.57;;
12836;SDS011;6485;51.472;5.268;2022-07-11T00:22:05;9.00;;;5.50;;
12836;SDS011;6485;51.472;5.268;2022-07-11T00:24:34;10.97;;;5.20;;
12836;SDS011;6485;51.472;5.268;2022-07-11T00:27:02;8.47;;;5.50;;
12836;SDS011;6485;51.472;5.268;2022-07-11T00:29:32;8.07;;;5.57;;
12836;SDS011;6485;51.472;5.268;2022-07-11T00:32:00;15.07;;;5.60;;
12836;SDS011;6485;51.472;5.268;2022-07-11T00:34:28;11.33;;;5.80;;
12836;SDS011;6485;51.472;5.268;2022-07-11T00:36:56;13.20;;;6.00;;
12836;SDS011;6485;51.472;5.268;2022-07-11T00:39:26;12.17;;;6.17;;
12836;SDS011;6485;51.472;5.268;2022-07-11T00:41:54;11.73;;;6.10;;
12836;SDS011;6485;51.472;5.268;2022-07-11T00:44:22;12.30;;;5.83;;
12836;SDS011;6485;51.472;5.268;2022-07-11T00:46:50;8.10;;;5.87;;
12836;SDS011;6485;51.472;5.268;2022-07-11T00:49:20;10.93;;;5.80;;
12836;SDS011;6485;51.472;5.268;2022-07-11T00:51:49;11.83;;;5.97;;
12836;SDS011;6485;51.472;5.268;2022-07-11T00:54:17;9.77;;;5.87;;
12836;SDS011;6485;51.472;5.268;2022-07-11T00:56:50;15.23;;;6.07;;
12836;SDS011;6485;51.472;5.268;2022-07-11T00:59:18;11.03;;;6.53;;
12836;SDS011;6485;51.472;5.268;2022-07-11T01:01:47;13.03;;;6.43;;
12836;SDS011;6485;51.472;5.268;2022-07-11T01:04:15;11.90;;;6.37;;
12836;SDS011;6485;51.472;5.268;2022-07-11T01:06:44;10.87;;;6.07;;
12836;SDS011;6485;51.472;5.268;2022-07-11T01:09:12;9.47;;;6.13;;
12836;SDS011;6485;51.472;5.268;2022-07-11T01:11:40;10.70;;;6.13;;
12836;SDS011;6485;51.472;5.268;2022-07-11T01:14:10;13.67;;;6.77;;
12836;SDS011;6485;51.472;5.268;2022-07-11T01:16:39;10.60;;;6.67;;
12836;SDS011;6485;51.472;5.268;2022-07-11T01:19:07;17.33;;;6.30;;
12836;SDS011;6485;51.472;5.268;2022-07-11T01:21:36;11.73;;;6.57;;
12836;SDS011;6485;51.472;5.268;2022-07-11T01:24:07;11.70;;;7.50;;
12836;SDS011;6485;51.472;5.268;2022-07-11T01:26:36;12.27;;;7.60;;
12836;SDS011;6485;51.472;5.268;2022-07-11T01:29:05;11.20;;;6.40;;
12836;SDS011;6485;51.472;5.268;2022-07-11T01:31:34;9.03;;;6.57;;
12836;SDS011;6485;51.472;5.268;2022-07-11T01:34:02;10.87;;;7.00;;
12836;SDS011;6485;51.472;5.268;2022-07-11T01:36:31;11.60;;;7.27;;
12836;SDS011;6485;51.472;5.268;2022-07-11T01:38:59;10.83;;;6.93;;
12836;SDS011;6485;51.472;5.268;2022-07-11T01:41:29;9.77;;;6.03;;
12836;SDS011;6485;51.472;5.268;2022-07-11T01:43:57;11.60;;;7.07;;
12836;SDS011;6485;51.472;5.268;2022-07-11T01:46:25;11.23;;;6.67;;
12836;SDS011;6485;51.472;5.268;2022-07-11T01:48:54;10.40;;;6.90;;
12836;SDS011;6485;51.472;5.268;2022-07-11T01:51:22;11.27;;;6.93;;
12836;SDS011;6485;51.472;5.268;2022-07-11T01:53:51;13.10;;;6.80;;
12836;SDS011;6485;51.472;5.268;2022-07-11T01:56:20;13.03;;;6.80;;
12836;SDS011;6485;51.472;5.268;2022-07-11T01:58:59;12.17;;;7.33;;
12836;SDS011;6485;51.472;5.268;2022-07-11T02:01:27;10.67;;;7.10;;
12836;SDS011;6485;51.472;5.268;2022-07-11T02:03:56;12.17;;;7.20;;
12836;SDS011;6485;51.472;5.268;2022-07-11T02:06:25;15.40;;;8.00;;
12836;SDS011;6485;51.472;5.268;2022-07-11T02:08:53;13.63;;;7.63;;
12836;SDS011;6485;51.472;5.268;2022-07-11T02:11:21;11.43;;;7.43;;
12836;SDS011;6485;51.472;5.268;2022-07-11T02:13:50;12.80;;;7.20;;
12836;SDS011;6485;51.472;5.268;2022-07-11T02:16:20;11.57;;;7.10;;
12836;SDS011;6485;51.472;5.268;2022-07-11T02:18:49;15.27;;;7.33;;
12836;SDS011;6485;51.472;5.268;2022-07-11T02:21:17;13.00;;;7.33;;
12836;SDS011;6485;51.472;5.268;2022-07-11T02:23:45;10.77;;;6.70;;
12836;SDS011;6485;51.472;5.268;2022-07-11T02:26:13;10.37;;;7.03;;
12836;SDS011;6485;51.472;5.268;2022-07-11T02:28:42;10.57;;;7.00;;
12836;SDS011;6485;51.472;5.268;2022-07-11T02:31:11;13.17;;;7.17;;
12836;SDS011;6485;51.472;5.268;2022-07-11T02:33:41;13.63;;;7.10;;
12836;SDS011;6485;51.472;5.268;2022-07-11T02:36:11;10.10;;;6.63;;
12836;SDS011;6485;51.472;5.268;2022-07-11T02:38:39;15.10;;;7.40;;
12836;SDS011;6485;51.472;5.268;2022-07-11T02:41:08;12.47;;;7.20;;
12836;SDS011;6485;51.472;5.268;2022-07-11T02:43:36;13.47;;;7.07;;
12836;SDS011;6485;51.472;5.268;2022-07-11T02:46:05;11.37;;;7.50;;
12836;SDS011;6485;51.472;5.268;2022-07-11T02:48:33;13.27;;;7.03;;
12836;SDS011;6485;51.472;5.268;2022-07-11T02:51:03;13.30;;;7.30;;
12836;SDS011;6485;51.472;5.268;2022-07-11T02:53:31;16.77;;;8.13;;
12836;SDS011;6485;51.472;5.268;2022-07-11T02:56:00;13.73;;;7.17;;
12836;SDS011;6485;51.472;5.268;2022-07-11T02:58:28;12.70;;;7.27;;
12836;SDS011;6485;51.472;5.268;2022-07-11T03:00:56;12.73;;;7.93;;
12836;SDS011;6485;51.472;5.268;2022-07-11T03:03:24;15.03;;;7.60;;
12836;SDS011;6485;51.472;5.268;2022-07-11T03:05:53;13.90;;;7.30;;
12836;SDS011;6485;51.472;5.268;2022-07-11T03:08:22;15.37;;;8.13;;
12836;SDS011;6485;51.472;5.268;2022-07-11T03:10:50;18.23;;;8.10;;
12836;SDS011;6485;51.472;5.268;2022-07-11T03:13:19;11.47;;;7.53;;
12836;SDS011;6485;51.472;5.268;2022-07-11T03:15:47;17.47;;;7.40;;
12836;SDS011;6485;51.472;5.268;2022-07-11T03:18:15;12.23;;;7.43;;
12836;SDS011;6485;51.472;5.268;2022-07-11T03:20:43;10.57;;;7.43;;
12836;SDS011;6485;51.472;5.268;2022-07-11T03:23:12;12.20;;;7.20;;
12836;SDS011;6485;51.472;5.268;2022-07-11T03:25:42;14.30;;;7.57;;
12836;SDS011;6485;51.472;5.268;2022-07-11T03:28:10;11.03;;;7.23;;
12836;SDS011;6485;51.472;5.268;2022-07-11T03:30:40;15.50;;;7.40;;
12836;SDS011;6485;51.472;5.268;2022-07-11T03:33:08;12.07;;;7.23;;
12836;SDS011;6485;51.472;5.268;2022-07-11T03:35:36;12.23;;;7.07;;
12836;SDS011;6485;51.472;5.268;2022-07-11T03:38:10;12.60;;;7.10;;
12836;SDS011;6485;51.472;5.268;2022-07-11T03:40:39;12.10;;;7.50;;
12836;SDS011;6485;51.472;5.268;2022-07-11T03:43:09;15.77;;;7.67;;
12836;SDS011;6485;51.472;5.268;2022-07-11T03:45:37;10.30;;;7.17;;
12836;SDS011;6485;51.472;5.268;2022-07-11T03:48:06;13.77;;;7.20;;
12836;SDS011;6485;51.472;5.268;2022-07-11T03:50:35;10.90;;;7.20;;
12836;SDS011;6485;51.472;5.268;2022-07-11T03:53:03;12.50;;;7.27;;
12836;SDS011;6485;51.472;5.268;2022-07-11T03:55:32;16.33;;;7.70;;
12836;SDS011;6485;51.472;5.268;2022-07-11T03:58:02;11.30;;;7.40;;
12836;SDS011;6485;51.472;5.268;2022-07-11T04:00:30;12.77;;;7.27;;
12836;SDS011;6485;51.472;5.268;2022-07-11T04:02:58;15.47;;;7.77;;
12836;SDS011;6485;51.472;5.268;2022-07-11T04:05:27;15.17;;;7.77;;
12836;SDS011;6485;51.472;5.268;2022-07-11T04:07:56;14.40;;;7.73;;
12836;SDS011;6485;51.472;5.268;2022-07-11T04:10:25;12.27;;;7.50;;
12836;SDS011;6485;51.472;5.268;2022-07-11T04:12:53;13.87;;;7.67;;
12836;SDS011;6485;51.472;5.268;2022-07-11T04:15:23;13.17;;;7.13;;
12836;SDS011;6485;51.472;5.268;2022-07-11T04:17:51;14.90;;;7.80;;
12836;SDS011;6485;51.472;5.268;2022-07-11T04:20:20;16.47;;;7.13;;
12836;SDS011;6485;51.472;5.268;2022-07-11T04:22:48;16.60;;;7.17;;
12836;SDS011;6485;51.472;5.268;2022-07-11T04:25:16;13.50;;;7.90;;
12836;SDS011;6485;51.472;5.268;2022-07-11T04:27:44;13.83;;;8.07;;
12836;SDS011;6485;51.472;5.268;2022-07-11T04:30:13;14.53;;;7.60;;
12836;SDS011;6485;51.472;5.268;2022-07-11T04:32:42;13.63;;;7.30;;
12836;SDS011;6485;51.472;5.268;2022-07-11T04:35:10;16.80;;;8.50;;
12836;SDS011;6485;51.472;5.268;2022-07-11T04:37:38;13.27;;;7.10;;
12836;SDS011;6485;51.472;5.268;2022-07-11T04:40:07;16.90;;;9.17;;
12836;SDS011;6485;51.472;5.268;2022-07-11T04:42:39;18.90;;;8.73;;
12836;SDS011;6485;51.472;5.268;2022-07-11T04:45:08;15.00;;;7.60;;
12836;SDS011;6485;51.472;5.268;2022-07-11T04:47:36;14.37;;;7.63;;
12836;SDS011;6485;51.472;5.268;2022-07-11T04:50:06;12.43;;;7.30;;
12836;SDS011;6485;51.472;5.268;2022-07-11T04:52:35;11.03;;;6.90;;
12836;SDS011;6485;51.472;5.268;2022-07-11T04:55:04;14.47;;;6.83;;
12836;SDS011;6485;51.472;5.268;2022-07-11T04:57:32;13.30;;;7.47;;
12836;SDS011;6485;51.472;5.268;2022-07-11T05:00:00;13.50;;;6.63;;
12836;SDS011;6485;51.472;5.268;2022-07-11T05:02:29;9.37;;;6.43;;
12836;SDS011;6485;51.472;5.268;2022-07-11T05:04:58;11.87;;;6.97;;
12836;SDS011;6485;51.472;5.268;2022-07-11T05:07:27;11.70;;;6.60;;
12836;SDS011;6485;51.472;5.268;2022-07-11T05:09:56;13.63;;;6.77;;
12836;SDS011;6485;51.472;5.268;2022-07-11T05:12:24;14.50;;;6.60;;
12836;SDS011;6485;51.472;5.268;2022-07-11T05:14:53;10.27;;;6.53;;
12836;SDS011;6485;51.472;5.268;2022-07-11T05:17:24;14.67;;;6.53;;
12836;SDS011;6485;51.472;5.268;2022-07-11T05:19:53;11.87;;;6.90;;
12836;SDS011;6485;51.472;5.268;2022-07-11T05:22:21;15.13;;;7.17;;
12836;SDS011;6485;51.472;5.268;2022-07-11T05:24:51;14.07;;;6.53;;
12836;SDS011;6485;51.472;5.268;2022-07-11T05:27:19;12.67;;;6.40;;
12836;SDS011;6485;51.472;5.268;2022-07-11T05:29:47;12.60;;;6.80;;
12836;SDS011;6485;51.472;5.268;2022-07-11T05:32:15;10.23;;;6.57;;
12836;SDS011;6485;51.472;5.268;2022-07-11T05:34:44;10.37;;;6.43;;
12836;SDS011;6485;51.472;5.268;2022-07-11T05:37:12;12.83;;;7.03;;
12836;SDS011;6485;51.472;5.268;2022-07-11T05:39:40;12.20;;;6.73;;
12836;SDS011;6485;51.472;5.268;2022-07-11T05:42:10;11.03;;;6.67;;
12836;SDS011;6485;51.472;5.268;2022-07-11T05:44:40;12.63;;;6.73;;
12836;SDS011;6485;51.472;5.268;2022-07-11T05:47:08;11.53;;;6.67;;
12836;SDS011;6485;51.472;5.268;2022-07-11T05:49:37;11.57;;;6.60;;
12836;SDS011;6485;51.472;5.268;2022-07-11T05:52:06;13.27;;;6.63;;
12836;SDS011;6485;51.472;5.268;2022-07-11T05:54:34;9.53;;;6.83;;
12836;SDS011;6485;51.472;5.268;2022-07-11T05:57:03;12.43;;;6.70;;
12836;SDS011;6485;51.472;5.268;2022-07-11T05:59:33;9.90;;;5.67;;
12836;SDS011;6485;51.472;5.268;2022-07-11T06:02:04;10.13;;;6.53;;
12836;SDS011;6485;51.472;5.268;2022-07-11T06:04:33;12.17;;;6.30;;
12836;SDS011;6485;51.472;5.268;2022-07-11T06:07:03;15.60;;;7.67;;
12836;SDS011;6485;51.472;5.268;2022-07-11T06:09:32;12.70;;;5.63;;
12836;SDS011;6485;51.472;5.268;2022-07-11T06:11:59;9.30;;;5.97;;
12836;SDS011;6485;51.472;5.268;2022-07-11T06:14:27;8.10;;;5.57;;
12836;SDS011;6485;51.472;5.268;2022-07-11T06:16:57;9.30;;;5.50;;
12836;SDS011;6485;51.472;5.268;2022-07-11T06:19:26;8.70;;;5.20;;
12836;SDS011;6485;51.472;5.268;2022-07-11T06:21:55;10.67;;;5.30;;
12836;SDS011;6485;51.472;5.268;2022-07-11T06:24:23;7.07;;;4.80;;
12836;SDS011;6485;51.472;5.268;2022-07-11T06:26:52;6.73;;;5.00;;
12836;SDS011;6485;51.472;5.268;2022-07-11T06:29:25;8.90;;;4.93;;
12836;SDS011;6485;51.472;5.268;2022-07-11T06:31:53;9.37;;;4.83;;
12836;SDS011;6485;51.472;5.268;2022-07-11T06:34:23;9.10;;;5.33;;
12836;SDS011;6485;51.472;5.268;2022-07-11T06:36:51;10.83;;;5.93;;
12836;SDS011;6485;51.472;5.268;2022-07-11T06:39:19;8.53;;;5.13;;
12836;SDS011;6485;51.472;5.268;2022-07-11T06:41:48;6.87;;;4.93;;
12836;SDS011;6485;51.472;5.268;2022-07-11T06:44:17;8.90;;;5.30;;
12836;SDS011;6485;51.472;5.268;2022-07-11T06:46:53;9.67;;;5.57;;
12836;SDS011;6485;51.472;5.268;2022-07-11T06:49:22;10.87;;;5.50;;
12836;SDS011;6485;51.472;5.268;2022-07-11T06:51:51;10.20;;;5.70;;
12836;SDS011;6485;51.472;5.268;2022-07-11T06:54:19;12.73;;;6.30;;
12836;SDS011;6485;51.472;5.268;2022-07-11T06:56:47;10.10;;;5.60;;
12836;SDS011;6485;51.472;5.268;2022-07-11T06:59:16;9.53;;;5.80;;
12836;SDS011;6485;51.472;5.268;2022-07-11T07:01:45;8.97;;;5.20;;
12836;SDS011;6485;51.472;5.268;2022-07-11T07:04:14;9.27;;;5.30;;
12836;SDS011;6485;51.472;5.268;2022-07-11T07:06:44;8.63;;;5.33;;
12836;SDS011;6485;51.472;5.268;2022-07-11T07:09:13;10.50;;;5.67;;
12836;SDS011;6485;51.472;5.268;2022-07-11T07:11:41;11.73;;;5.30;;
12836;SDS011;6485;51.472;5.268;2022-07-11T07:14:10;12.53;;;5.73;;
12836;SDS011;6485;51.472;5.268;2022-07-11T07:16:38;9.70;;;5.57;;
12836;SDS011;6485;51.472;5.268;2022-07-11T07:19:07;8.60;;;5.33;;
12836;SDS011;6485;51.472;5.268;2022-07-11T07:21:35;13.00;;;6.20;;
12836;SDS011;6485;51.472;5.268;2022-07-11T07:24:06;12.90;;;5.80;;
12836;SDS011;6485;51.472;5.268;2022-07-11T07:26:43;10.50;;;5.77;;
12836;SDS011;6485;51.472;5.268;2022-07-11T07:29:11;13.30;;;6.60;;
12836;SDS011;6485;51.472;5.268;2022-07-11T07:31:39;10.33;;;5.73;;
12836;SDS011;6485;51.472;5.268;2022-07-11T07:34:08;11.83;;;6.17;;
12836;SDS011;6485;51.472;5.268;2022-07-11T07:36:38;12.53;;;6.40;;
12836;SDS011;6485;51.472;5.268;2022-07-11T07:39:10;13.73;;;6.70;;
12836;SDS011;6485;51.472;5.268;2022-07-11T07:41:39;11.17;;;6.57;;
12836;SDS011;6485;51.472;5.268;2022-07-11T07:44:08;11.30;;;6.70;;
12836;SDS011;6485;51.472;5.268;2022-07-11T07:46:37;12.07;;;6.47;;
12836;SDS011;6485;51.472;5.268;2022-07-11T07:49:05;10.43;;;6.70;;
12836;SDS011;6485;51.472;5.268;2022-07-11T07:51:33;11.63;;;6.23;;
12836;SDS011;6485;51.472;5.268;2022-07-11T07:54:01;9.87;;;6.47;;
12836;SDS011;6485;51.472;5.268;2022-07-11T07:56:31;14.93;;;6.90;;
12836;SDS011;6485;51.472;5.268;2022-07-11T07:59:00;11.93;;;6.90;;
12836;SDS011;6485;51.472;5.268;2022-07-11T08:01:28;9.47;;;5.63;;
12836;SDS011;6485;51.472;5.268;2022-07-11T08:04:02;8.60;;;5.80;;
12836;SDS011;6485;51.472;5.268;2022-07-11T08:06:31;10.90;;;5.87;;
12836;SDS011;6485;51.472;5.268;2022-07-11T08:09:00;11.10;;;6.60;;
12836;SDS011;6485;51.472;5.268;2022-07-11T08:11:29;12.57;;;6.90;;
12836;SDS011;6485;51.472;5.268;2022-07-11T08:14:00;10.73;;;6.50;;
12836;SDS011;6485;51.472;5.268;2022-07-11T08:16:30;12.13;;;6.60;;
12836;SDS011;6485;51.472;5.268;2022-07-11T08:19:00;10.27;;;6.57;;
12836;SDS011;6485;51.472;5.268;2022-07-11T08:21:30;12.53;;;6.80;;
12836;SDS011;6485;51.472;5.268;2022-07-11T08:24:00;11.67;;;6.60;;
12836;SDS011;6485;51.472;5.268;2022-07-11T08:26:29;13.90;;;7.47;;
12836;SDS011;6485;51.472;5.268;2022-07-11T08:29:01;12.20;;;7.03;;
12836;SDS011;6485;51.472;5.268;2022-07-11T08:31:32;11.57;;;7.10;;
12836;SDS011;6485;51.472;5.268;2022-07-11T08:34:04;10.60;;;6.90;;
12836;SDS011;6485;51.472;5.268;2022-07-11T08:36:40;12.63;;;7.30;;
12836;SDS011;6485;51.472;5.268;2022-07-11T08:39:09;10.60;;;6.93;;
12836;SDS011;6485;51.472;5.268;2022-07-11T08:41:37;13.33;;;6.47;;
12836;SDS011;6485;51.472;5.268;2022-07-11T08:44:11;10.43;;;6.43;;
12836;SDS011;6485;51.472;5.268;2022-07-11T08:46:40;12.80;;;6.73;;
12836;SDS011;6485;51.472;5.268;2022-07-11T08:49:10;13.00;;;6.47;;
12836;SDS011;6485;51.472;5.268;2022-07-11T08:51:40;14.93;;;7.30;;
12836;SDS011;6485;51.472;5.268;2022-07-11T08:54:10;11.53;;;7.10;;
12836;SDS011;6485;51.472;5.268;2022-07-11T08:56:38;12.57;;;6.77;;
12836;SDS011;6485;51.472;5.268;2022-07-11T08:59:14;9.87;;;6.40;;
12836;SDS011;6485;51.472;5.268;2022-07-11T09:01:45;11.53;;;6.80;;
12836;SDS011;6485;51.472;5.268;2022-07-11T09:04:16;13.03;;;6.90;;
12836;SDS011;6485;51.472;5.268;2022-07-11T09:06:45;10.37;;;6.73;;
12836;SDS011;6485;51.472;5.268;2022-07-11T09:09:13;11.17;;;7.07;;
12836;SDS011;6485;51.472;5.268;2022-07-11T09:11:48;10.83;;;6.73;;
12836;SDS011;6485;51.472;5.268;2022-07-11T09:14:23;11.70;;;7.10;;
12836;SDS011;6485;51.472;5.268;2022-07-11T09:16:55;13.67;;;7.83;;
12836;SDS011;6485;51.472;5.268;2022-07-11T09:19:25;13.23;;;8.23;;
12836;SDS011;6485;51.472;5.268;2022-07-11T09:21:58;14.70;;;8.30;;
12836;SDS011;6485;51.472;5.268;2022-07-11T09:24:52;16.70;;;8.10;;
12836;SDS011;6485;51.472;5.268;2022-07-11T09:27:43;11.23;;;7.00;;
12836;SDS011;6485;51.472;5.268;2022-07-11T09:30:16;13.40;;;7.67;;
12836;SDS011;6485;51.472;5.268;2022-07-11T09:32:53;10.87;;;6.93;;
12836;SDS011;6485;51.472;5.268;2022-07-11T09:35:24;13.10;;;6.83;;
12836;SDS011;6485;51.472;5.268;2022-07-11T09:37:54;13.07;;;7.63;;
12836;SDS011;6485;51.472;5.268;2022-07-11T09:40:27;12.17;;;6.97;;
12836;SDS011;6485;51.472;5.268;2022-07-11T09:42:56;12.37;;;6.80;;
12836;SDS011;6485;51.472;5.268;2022-07-11T09:45:30;9.07;;;6.47;;
12836;SDS011;6485;51.472;5.268;2022-07-11T09:48:00;10.47;;;6.67;;
12836;SDS011;6485;51.472;5.268;2022-07-11T09:50:34;10.70;;;6.83;;
12836;SDS011;6485;51.472;5.268;2022-07-11T09:53:04;13.00;;;7.20;;
12836;SDS011;6485;51.472;5.268;2022-07-11T09:55:34;11.83;;;7.20;;
12836;SDS011;6485;51.472;5.268;2022-07-11T09:58:17;10.43;;;6.73;;
12836;SDS011;6485;51.472;5.268;2022-07-11T10:00:50;12.37;;;7.27;;
12836;SDS011;6485;51.472;5.268;2022-07-11T10:03:20;13.33;;;7.53;;
12836;SDS011;6485;51.472;5.268;2022-07-11T10:06:10;13.50;;;7.43;;
12836;SDS011;6485;51.472;5.268;2022-07-11T10:08:38;11.30;;;6.70;;
12836;SDS011;6485;51.472;5.268;2022-07-11T10:11:07;10.20;;;6.70;;
12836;SDS011;6485;51.472;5.268;2022-07-11T10:13:37;12.07;;;6.77;;
12836;SDS011;6485;51.472;5.268;2022-07-11T10:16:11;11.03;;;6.70;;
12836;SDS011;6485;51.472;5.268;2022-07-11T10:18:50;12.30;;;7.53;;
12836;SDS011;6485;51.472;5.268;2022-07-11T10:21:35;10.00;;;6.53;;
12836;SDS011;6485;51.472;5.268;2022-07-11T10:24:14;10.70;;;6.73;;
12836;SDS011;6485;51.472;5.268;2022-07-11T10:26:54;11.77;;;6.60;;
12836;SDS011;6485;51.472;5.268;2022-07-11T10:29:31;10.17;;;6.70;;
12836;SDS011;6485;51.472;5.268;2022-07-11T10:32:07;11.07;;;6.80;;
12836;SDS011;6485;51.472;5.268;2022-07-11T10:34:40;8.47;;;5.57;;
12836;SDS011;6485;51.472;5.268;2022-07-11T10:37:09;8.83;;;6.70;;
12836;SDS011;6485;51.472;5.268;2022-07-11T10:39:39;11.40;;;5.87;;
12836;SDS011;6485;51.472;5.268;2022-07-11T10:42:36;8.23;;;5.70;;
12836;SDS011;6485;51.472;5.268;2022-07-11T10:45:07;7.83;;;5.27;;
12836;SDS011;6485;51.472;5.268;2022-07-11T10:47:41;7.97;;;5.20;;
12836;SDS011;6485;51.472;5.268;2022-07-11T10:50:28;7.30;;;4.77;;
12836;SDS011;6485;51.472;5.268;2022-07-11T10:53:10;7.30;;;5.50;;
12836;SDS011;6485;51.472;5.268;2022-07-11T10:55:52;7.37;;;5.07;;
12836;SDS011;6485;51.472;5.268;2022-07-11T10:58:29;10.17;;;5.93;;
12836;SDS011;6485;51.472;5.268;2022-07-11T11:01:08;7.23;;;5.10;;
12836;SDS011;6485;51.472;5.268;2022-07-11T11:03:39;13.80;;;5.60;;
12836;SDS011;6485;51.472;5.268;2022-07-11T11:06:10;9.23;;;5.20;;
12836;SDS011;6485;51.472;5.268;2022-07-11T11:08:47;10.77;;;5.50;;
12836;SDS011;6485;51.472;5.268;2022-07-11T11:11:36;7.23;;;5.50;;
12836;SDS011;6485;51.472;5.268;2022-07-11T11:14:21;8.93;;;5.97;;
12836;SDS011;6485;51.472;5.268;2022-07-11T11:16:55;10.30;;;6.27;;
12836;SDS011;6485;51.472;5.268;2022-07-11T11:19:54;10.73;;;6.93;;
12836;SDS011;6485;51.472;5.268;2022-07-11T11:22:23;9.53;;;6.20;;
12836;SDS011;6485;51.472;5.268;2022-07-11T11:24:52;9.70;;;6.30;;
12836;SDS011;6485;51.472;5.268;2022-07-11T11:30:31;9.10;;;6.60;;
12836;SDS011;6485;51.472;5.268;2022-07-11T11:33:00;9.93;;;6.27;;
12836;SDS011;6485;51.472;5.268;2022-07-11T11:35:30;12.33;;;7.00;;
12836;SDS011;6485;51.472;5.268;2022-07-11T11:37:59;10.30;;;6.20;;
12836;SDS011;6485;51.472;5.268;2022-07-11T11:40:28;11.57;;;6.97;;
12836;SDS011;6485;51.472;5.268;2022-07-11T11:42:56;10.07;;;6.47;;
12836;SDS011;6485;51.472;5.268;2022-07-11T13:10:25;5.25;;;3.35;;
12836;SDS011;6485;51.472;5.268;2022-07-11T13:13:28;3.73;;;3.03;;
12836;SDS011;6485;51.472;5.268;2022-07-11T13:15:56;4.50;;;3.53;;
12836;SDS011;6485;51.472;5.268;2022-07-11T13:18:25;3.67;;;3.20;;
12836;SDS011;6485;51.472;5.268;2022-07-11T13:20:54;6.10;;;3.40;;
12836;SDS011;6485;51.472;5.268;2022-07-11T13:23:23;6.43;;;3.50;;
12836;SDS011;6485;51.472;5.268;2022-07-11T13:25:58;2.80;;;2.60;;
12836;SDS011;6485;51.472;5.268;2022-07-11T13:28:27;6.50;;;3.60;;
12836;SDS011;6485;51.472;5.268;2022-07-11T13:30:55;4.33;;;3.30;;
12836;SDS011;6485;51.472;5.268;2022-07-11T13:33:42;5.23;;;3.23;;
12836;SDS011;6485;51.472;5.268;2022-07-11T13:36:10;4.57;;;3.17;;
12836;SDS011;6485;51.472;5.268;2022-07-11T13:38:38;3.63;;;2.67;;
12836;SDS011;6485;51.472;5.268;2022-07-11T13:41:08;3.33;;;2.97;;
12836;SDS011;6485;51.472;5.268;2022-07-11T13:43:42;5.00;;;2.60;;
12836;SDS011;6485;51.472;5.268;2022-07-11T13:46:11;4.27;;;2.80;;
12836;SDS011;6485;51.472;5.268;2022-07-11T13:48:40;3.87;;;2.70;;
12836;SDS011;6485;51.472;5.268;2022-07-11T13:51:09;3.47;;;2.57;;
12836;SDS011;6485;51.472;5.268;2022-07-11T13:53:37;3.43;;;2.70;;
12836;SDS011;6485;51.472;5.268;2022-07-11T13:56:07;2.83;;;2.50;;
12836;SDS011;6485;51.472;5.268;2022-07-11T13:58:36;3.00;;;2.50;;
12836;SDS011;6485;51.472;5.268;2022-07-11T14:01:04;2.77;;;2.30;;
12836;SDS011;6485;51.472;5.268;2022-07-11T14:03:33;3.73;;;2.60;;
12836;SDS011;6485;51.472;5.268;2022-07-11T14:06:01;3.10;;;2.50;;
12836;SDS011;6485;51.472;5.268;2022-07-11T14:08:29;2.90;;;2.50;;
12836;SDS011;6485;51.472;5.268;2022-07-11T14:10:58;6.17;;;2.67;;
12836;SDS011;6485;51.472;5.268;2022-07-11T14:13:28;3.40;;;2.60;;
12836;SDS011;6485;51.472;5.268;2022-07-11T14:15:57;3.10;;;2.60;;
12836;SDS011;6485;51.472;5.268;2022-07-11T14:18:32;4.17;;;2.37;;
12836;SDS011;6485;51.472;5.268;2022-07-11T14:21:01;6.30;;;2.27;;
12836;SDS011;6485;51.472;5.268;2022-07-11T14:23:29;2.50;;;2.30;;
12836;SDS011;6485;51.472;5.268;2022-07-11T14:25:58;2.13;;;2.00;;
12836;SDS011;6485;51.472;5.268;2022-07-11T14:28:29;5.40;;;2.10;;
12836;SDS011;6485;51.472;5.268;2022-07-11T14:30:57;3.77;;;2.40;;
12836;SDS011;6485;51.472;5.268;2022-07-11T14:33:26;3.27;;;2.20;;
12836;SDS011;6485;51.472;5.268;2022-07-11T14:35:59;2.47;;;1.90;;
12836;SDS011;6485;51.472;5.268;2022-07-11T14:38:27;2.63;;;2.27;;
12836;SDS011;6485;51.472;5.268;2022-07-11T14:40:56;2.73;;;1.80;;
12836;SDS011;6485;51.472;5.268;2022-07-11T14:43:24;3.50;;;2.17;;
12836;SDS011;6485;51.472;5.268;2022-07-11T14:45:54;4.33;;;2.30;;
12836;SDS011;6485;51.472;5.268;2022-07-11T14:48:23;2.47;;;2.27;;
12836;SDS011;6485;51.472;5.268;2022-07-11T14:50:51;2.67;;;1.93;;
12836;SDS011;6485;51.472;5.268;2022-07-11T14:53:20;2.20;;;2.00;;
12836;SDS011;6485;51.472;5.268;2022-07-11T14:55:49;2.20;;;2.00;;
12836;SDS011;6485;51.472;5.268;2022-07-11T14:58:37;3.97;;;2.10;;
12836;SDS011;6485;51.472;5.268;2022-07-11T15:01:08;2.30;;;2.10;;
12836;SDS011;6485;51.472;5.268;2022-07-11T15:03:36;2.37;;;2.00;;
12836;SDS011;6485;51.472;5.268;2022-07-11T15:06:10;1.90;;;1.70;;
12836;SDS011;6485;51.472;5.268;2022-07-11T15:08:40;2.30;;;2.10;;
12836;SDS011;6485;51.472;5.268;2022-07-11T15:11:26;4.47;;;2.20;;
12836;SDS011;6485;51.472;5.268;2022-07-11T15:14:12;1.93;;;1.73;;
12836;SDS011;6485;51.472;5.268;2022-07-11T15:16:43;1.90;;;1.80;;
12836;SDS011;6485;51.472;5.268;2022-07-11T15:19:14;2.00;;;1.90;;
12836;SDS011;6485;51.472;5.268;2022-07-11T15:21:42;2.20;;;2.00;;
12836;SDS011;6485;51.472;5.268;2022-07-11T15:24:13;2.03;;;1.90;;
12836;SDS011;6485;51.472;5.268;2022-07-11T15:26:52;1.90;;;1.73;;
12836;SDS011;6485;51.472;5.268;2022-07-11T15:29:24;4.80;;;1.93;;
12836;SDS011;6485;51.472;5.268;2022-07-11T15:31:54;2.43;;;2.00;;
12836;SDS011;6485;51.472;5.268;2022-07-11T15:34:24;2.60;;;2.40;;
12836;SDS011;6485;51.472;5.268;2022-07-11T15:39:59;38.47;;;21.03;;
12836;SDS011;6485;51.472;5.268;2022-07-11T15:42:33;3.20;;;2.20;;
12836;SDS011;6485;51.472;5.268;2022-07-11T15:45:04;5.07;;;2.00;;
12836;SDS011;6485;51.472;5.268;2022-07-11T15:47:37;2.73;;;1.80;;
12836;SDS011;6485;51.472;5.268;2022-07-11T15:50:06;2.30;;;2.00;;
12836;SDS011;6485;51.472;5.268;2022-07-11T15:52:35;1.73;;;1.63;;
12836;SDS011;6485;51.472;5.268;2022-07-11T15:55:10;1.97;;;1.87;;
12836;SDS011;6485;51.472;5.268;2022-07-11T15:57:38;2.13;;;1.93;;
12836;SDS011;6485;51.472;5.268;2022-07-11T16:00:07;1.83;;;1.73;;
12836;SDS011;6485;51.472;5.268;2022-07-11T16:02:40;3.13;;;1.90;;
12836;SDS011;6485;51.472;5.268;2022-07-11T16:05:08;2.13;;;1.90;;
12836;SDS011;6485;51.472;5.268;2022-07-11T16:07:37;3.33;;;1.87;;
12836;SDS011;6485;51.472;5.268;2022-07-11T16:10:05;2.30;;;2.10;;
12836;SDS011;6485;51.472;5.268;2022-07-11T16:12:34;2.37;;;2.00;;
12836;SDS011;6485;51.472;5.268;2022-07-11T16:15:03;2.20;;;1.90;;
12836;SDS011;6485;51.472;5.268;2022-07-11T16:17:32;1.80;;;1.70;;
12836;SDS011;6485;51.472;5.268;2022-07-11T16:20:04;2.53;;;2.30;;
12836;SDS011;6485;51.472;5.268;2022-07-11T16:22:33;2.97;;;1.90;;
12836;SDS011;6485;51.472;5.268;2022-07-11T16:25:12;3.23;;;1.80;;
12836;SDS011;6485;51.472;5.268;2022-07-11T16:27:42;2.23;;;2.03;;
12836;SDS011;6485;51.472;5.268;2022-07-11T16:30:10;3.00;;;1.90;;
12836;SDS011;6485;51.472;5.268;2022-07-11T16:32:40;2.07;;;1.93;;
12836;SDS011;6485;51.472;5.268;2022-07-11T16:35:10;2.03;;;1.83;;
12836;SDS011;6485;51.472;5.268;2022-07-11T16:37:38;2.20;;;2.00;;
12836;SDS011;6485;51.472;5.268;2022-07-11T16:40:07;1.97;;;1.70;;
12836;SDS011;6485;51.472;5.268;2022-07-11T16:42:59;2.10;;;2.00;;
12836;SDS011;6485;51.472;5.268;2022-07-11T16:45:44;3.20;;;2.00;;